Grand Turk, Turks and Caicos Islands
Current Conditions -  °F | °C
As of 3:00 PM on Thursday 27 Nov 2014 (Local Time) from MBGT Reporting Station
Scattered Clouds Scattered Clouds  
Wind Chill: 82°   Ceiling: Unl
Heat Index: 86°   Visibility: 6mi
Dew Point: 70°   Wind: 9mph
Humidity: 66%   Direction: 90°E
Pressure: 29.94"   Gusts: NA
Location:  21.46°N, 71.14°W
Report Text: MBGT 271900Z 09008KT 9999 SCT012 28/21 Q1014
Loading
Personal Weather Stations






























Interactive Weather Map New forecast layout! Learn more

10-Day Weather Forecast

Advertisements
Track Severe Weather on mobile